sensor_id;sensor_type;location;lat;lon;timestamp;P1;durP1;ratioP1;P2;durP2;ratioP2
28086;SDS011;15392;48.912;8.380;2023-06-26T00:02:22;1.00;;;1.00;;
28086;SDS011;15392;48.912;8.380;2023-06-26T00:04:48;1.20;;;1.20;;
28086;SDS011;15392;48.912;8.380;2023-06-26T00:09:45;1.00;;;1.00;;
28086;SDS011;15392;48.912;8.380;2023-06-26T00:12:11;1.08;;;1.08;;
28086;SDS011;15392;48.912;8.380;2023-06-26T00:14:36;1.10;;;1.10;;
28086;SDS011;15392;48.912;8.380;2023-06-26T00:17:02;1.20;;;1.20;;
28086;SDS011;15392;48.912;8.380;2023-06-26T00:19:28;1.30;;;1.30;;
28086;SDS011;15392;48.912;8.380;2023-06-26T00:21:54;1.30;;;1.30;;
28086;SDS011;15392;48.912;8.380;2023-06-26T00:24:19;1.10;;;1.10;;
28086;SDS011;15392;48.912;8.380;2023-06-26T00:26:46;1.40;;;1.40;;
28086;SDS011;15392;48.912;8.380;2023-06-26T00:29:12;1.02;;;1.02;;
28086;SDS011;15392;48.912;8.380;2023-06-26T00:31:38;1.27;;;1.27;;
28086;SDS011;15392;48.912;8.380;2023-06-26T00:34:05;1.23;;;1.23;;
28086;SDS011;15392;48.912;8.380;2023-06-26T00:36:31;1.17;;;1.17;;
28086;SDS011;15392;48.912;8.380;2023-06-26T00:38:57;1.42;;;1.42;;
28086;SDS011;15392;48.912;8.380;2023-06-26T00:41:24;1.20;;;1.20;;
28086;SDS011;15392;48.912;8.380;2023-06-26T00:43:49;1.40;;;1.40;;
28086;SDS011;15392;48.912;8.380;2023-06-26T00:46:16;1.15;;;1.15;;
28086;SDS011;15392;48.912;8.380;2023-06-26T00:48:43;1.15;;;1.15;;
28086;SDS011;15392;48.912;8.380;2023-06-26T00:51:11;1.15;;;1.15;;
28086;SDS011;15392;48.912;8.380;2023-06-26T00:53:37;1.20;;;1.20;;
28086;SDS011;15392;48.912;8.380;2023-06-26T00:56:03;1.30;;;1.30;;
28086;SDS011;15392;48.912;8.380;2023-06-26T00:58:30;1.25;;;1.25;;
28086;SDS011;15392;48.912;8.380;2023-06-26T01:00:56;1.20;;;1.20;;
28086;SDS011;15392;48.912;8.380;2023-06-26T01:03:23;1.25;;;1.25;;
28086;SDS011;15392;48.912;8.380;2023-06-26T01:05:51;1.38;;;1.38;;
28086;SDS011;15392;48.912;8.380;2023-06-26T01:10:46;1.20;;;1.20;;
28086;SDS011;15392;48.912;8.380;2023-06-26T01:13:13;1.33;;;1.33;;
28086;SDS011;15392;48.912;8.380;2023-06-26T01:15:40;1.30;;;1.30;;
28086;SDS011;15392;48.912;8.380;2023-06-26T01:18:06;1.33;;;1.33;;
28086;SDS011;15392;48.912;8.380;2023-06-26T01:20:34;1.17;;;1.17;;
28086;SDS011;15392;48.912;8.380;2023-06-26T01:23:14;1.25;;;1.25;;
28086;SDS011;15392;48.912;8.380;2023-06-26T01:28:44;1.40;;;1.40;;
28086;SDS011;15392;48.912;8.380;2023-06-26T01:31:11;1.33;;;1.33;;
28086;SDS011;15392;48.912;8.380;2023-06-26T01:33:38;1.35;;;1.35;;
28086;SDS011;15392;48.912;8.380;2023-06-26T01:36:06;1.40;;;1.40;;
28086;SDS011;15392;48.912;8.380;2023-06-26T01:38:32;1.45;;;1.45;;
28086;SDS011;15392;48.912;8.380;2023-06-26T01:41:00;1.52;;;1.52;;
28086;SDS011;15392;48.912;8.380;2023-06-26T01:46:40;1.40;;;1.40;;
28086;SDS011;15392;48.912;8.380;2023-06-26T01:49:15;1.60;;;1.60;;
28086;SDS011;15392;48.912;8.380;2023-06-26T01:54:42;1.42;;;1.42;;
28086;SDS011;15392;48.912;8.380;2023-06-26T01:57:31;1.33;;;1.33;;
28086;SDS011;15392;48.912;8.380;2023-06-26T01:59:58;1.65;;;1.65;;
28086;SDS011;15392;48.912;8.380;2023-06-26T02:02:25;1.30;;;1.30;;
28086;SDS011;15392;48.912;8.380;2023-06-26T02:04:53;1.50;;;1.50;;
28086;SDS011;15392;48.912;8.380;2023-06-26T02:07:19;1.45;;;1.45;;
28086;SDS011;15392;48.912;8.380;2023-06-26T02:09:45;1.50;;;1.50;;
28086;SDS011;15392;48.912;8.380;2023-06-26T02:12:10;1.45;;;1.45;;
28086;SDS011;15392;48.912;8.380;2023-06-26T02:14:36;1.40;;;1.40;;
28086;SDS011;15392;48.912;8.380;2023-06-26T02:17:02;1.50;;;1.50;;
28086;SDS011;15392;48.912;8.380;2023-06-26T02:19:28;1.60;;;1.60;;
28086;SDS011;15392;48.912;8.380;2023-06-26T02:21:54;1.50;;;1.50;;
28086;SDS011;15392;48.912;8.380;2023-06-26T02:24:20;1.50;;;1.50;;
28086;SDS011;15392;48.912;8.380;2023-06-26T02:26:45;1.63;;;1.63;;
28086;SDS011;15392;48.912;8.380;2023-06-26T02:29:12;1.40;;;1.40;;
28086;SDS011;15392;48.912;8.380;2023-06-26T02:31:38;1.40;;;1.40;;
28086;SDS011;15392;48.912;8.380;2023-06-26T02:34:04;1.50;;;1.50;;
28086;SDS011;15392;48.912;8.380;2023-06-26T02:36:29;1.70;;;1.70;;
28086;SDS011;15392;48.912;8.380;2023-06-26T02:38:55;1.63;;;1.63;;
28086;SDS011;15392;48.912;8.380;2023-06-26T02:41:21;1.50;;;1.50;;
28086;SDS011;15392;48.912;8.380;2023-06-26T02:43:47;1.33;;;1.33;;
28086;SDS011;15392;48.912;8.380;2023-06-26T02:46:12;1.52;;;1.52;;
28086;SDS011;15392;48.912;8.380;2023-06-26T02:48:38;1.10;;;1.10;;
28086;SDS011;15392;48.912;8.380;2023-06-26T02:51:04;1.40;;;1.40;;
28086;SDS011;15392;48.912;8.380;2023-06-26T02:53:31;1.42;;;1.42;;
28086;SDS011;15392;48.912;8.380;2023-06-26T02:55:56;1.60;;;1.60;;
28086;SDS011;15392;48.912;8.380;2023-06-26T02:58:22;1.40;;;1.40;;
28086;SDS011;15392;48.912;8.380;2023-06-26T03:00:48;1.38;;;1.38;;
28086;SDS011;15392;48.912;8.380;2023-06-26T03:03:14;1.30;;;1.30;;
28086;SDS011;15392;48.912;8.380;2023-06-26T03:05:39;1.60;;;1.60;;
28086;SDS011;15392;48.912;8.380;2023-06-26T03:08:05;1.38;;;1.38;;
28086;SDS011;15392;48.912;8.380;2023-06-26T03:10:31;1.50;;;1.50;;
28086;SDS011;15392;48.912;8.380;2023-06-26T03:12:56;1.50;;;1.50;;
28086;SDS011;15392;48.912;8.380;2023-06-26T03:15:22;1.58;;;1.58;;
28086;SDS011;15392;48.912;8.380;2023-06-26T03:17:48;1.60;;;1.60;;
28086;SDS011;15392;48.912;8.380;2023-06-26T03:20:13;1.50;;;1.50;;
28086;SDS011;15392;48.912;8.380;2023-06-26T03:22:40;1.60;;;1.60;;
28086;SDS011;15392;48.912;8.380;2023-06-26T03:25:06;1.48;;;1.48;;
28086;SDS011;15392;48.912;8.380;2023-06-26T03:27:32;1.70;;;1.70;;
28086;SDS011;15392;48.912;8.380;2023-06-26T03:29:58;1.50;;;1.50;;
28086;SDS011;15392;48.912;8.380;2023-06-26T03:32:24;1.40;;;1.40;;
28086;SDS011;15392;48.912;8.380;2023-06-26T03:34:50;1.50;;;1.50;;
28086;SDS011;15392;48.912;8.380;2023-06-26T03:37:15;1.40;;;1.40;;
28086;SDS011;15392;48.912;8.380;2023-06-26T03:39:41;1.40;;;1.40;;
28086;SDS011;15392;48.912;8.380;2023-06-26T03:42:07;1.60;;;1.60;;
28086;SDS011;15392;48.912;8.380;2023-06-26T03:44:33;1.30;;;1.30;;
28086;SDS011;15392;48.912;8.380;2023-06-26T03:46:58;1.55;;;1.48;;
28086;SDS011;15392;48.912;8.380;2023-06-26T03:49:24;1.42;;;1.42;;
28086;SDS011;15392;48.912;8.380;2023-06-26T03:51:50;1.30;;;1.30;;
28086;SDS011;15392;48.912;8.380;2023-06-26T03:54:15;1.30;;;1.30;;
28086;SDS011;15392;48.912;8.380;2023-06-26T03:56:41;1.50;;;1.50;;
28086;SDS011;15392;48.912;8.380;2023-06-26T03:59:07;1.65;;;1.30;;
28086;SDS011;15392;48.912;8.380;2023-06-26T04:01:33;1.50;;;1.50;;
28086;SDS011;15392;48.912;8.380;2023-06-26T04:04:02;1.42;;;1.42;;
28086;SDS011;15392;48.912;8.380;2023-06-26T04:06:28;1.40;;;1.40;;
28086;SDS011;15392;48.912;8.380;2023-06-26T04:08:56;1.30;;;1.30;;
28086;SDS011;15392;48.912;8.380;2023-06-26T04:11:22;1.58;;;1.42;;
28086;SDS011;15392;48.912;8.380;2023-06-26T04:13:49;1.60;;;1.60;;
28086;SDS011;15392;48.912;8.380;2023-06-26T04:16:15;1.55;;;1.55;;
28086;SDS011;15392;48.912;8.380;2023-06-26T04:18:41;1.60;;;1.60;;
28086;SDS011;15392;48.912;8.380;2023-06-26T04:21:07;2.08;;;1.42;;
28086;SDS011;15392;48.912;8.380;2023-06-26T04:23:36;1.40;;;1.40;;
28086;SDS011;15392;48.912;8.380;2023-06-26T04:26:04;1.48;;;1.48;;
28086;SDS011;15392;48.912;8.380;2023-06-26T04:28:31;1.35;;;1.35;;
28086;SDS011;15392;48.912;8.380;2023-06-26T04:30:58;1.50;;;1.50;;
28086;SDS011;15392;48.912;8.380;2023-06-26T04:33:25;1.40;;;1.40;;
28086;SDS011;15392;48.912;8.380;2023-06-26T04:35:51;1.30;;;1.30;;
28086;SDS011;15392;48.912;8.380;2023-06-26T04:38:18;1.13;;;1.13;;
28086;SDS011;15392;48.912;8.380;2023-06-26T04:40:45;1.40;;;1.40;;
28086;SDS011;15392;48.912;8.380;2023-06-26T04:43:11;1.50;;;1.50;;
28086;SDS011;15392;48.912;8.380;2023-06-26T04:45:37;1.52;;;1.52;;
28086;SDS011;15392;48.912;8.380;2023-06-26T04:48:02;1.58;;;1.58;;
28086;SDS011;15392;48.912;8.380;2023-06-26T04:50:30;1.50;;;1.50;;
28086;SDS011;15392;48.912;8.380;2023-06-26T04:52:56;1.63;;;1.63;;
28086;SDS011;15392;48.912;8.380;2023-06-26T04:55:23;1.33;;;1.33;;
28086;SDS011;15392;48.912;8.380;2023-06-26T04:57:50;1.55;;;1.55;;
28086;SDS011;15392;48.912;8.380;2023-06-26T05:00:16;1.50;;;1.50;;
28086;SDS011;15392;48.912;8.380;2023-06-26T05:02:42;1.42;;;1.42;;
28086;SDS011;15392;48.912;8.380;2023-06-26T05:05:08;1.35;;;1.35;;
28086;SDS011;15392;48.912;8.380;2023-06-26T05:07:35;1.45;;;1.45;;
28086;SDS011;15392;48.912;8.380;2023-06-26T05:10:02;1.38;;;1.30;;
28086;SDS011;15392;48.912;8.380;2023-06-26T05:12:28;1.60;;;1.60;;
28086;SDS011;15392;48.912;8.380;2023-06-26T05:14:53;1.42;;;1.42;;
28086;SDS011;15392;48.912;8.380;2023-06-26T05:17:22;1.65;;;1.65;;
28086;SDS011;15392;48.912;8.380;2023-06-26T05:19:48;1.50;;;1.50;;
28086;SDS011;15392;48.912;8.380;2023-06-26T05:22:14;1.50;;;1.50;;
28086;SDS011;15392;48.912;8.380;2023-06-26T05:24:42;1.50;;;1.50;;
28086;SDS011;15392;48.912;8.380;2023-06-26T05:27:11;1.63;;;1.52;;
28086;SDS011;15392;48.912;8.380;2023-06-26T05:29:46;1.67;;;1.67;;
28086;SDS011;15392;48.912;8.380;2023-06-26T05:32:12;1.73;;;1.67;;
28086;SDS011;15392;48.912;8.380;2023-06-26T05:34:46;1.77;;;1.70;;
28086;SDS011;15392;48.912;8.380;2023-06-26T05:37:22;1.40;;;1.40;;
28086;SDS011;15392;48.912;8.380;2023-06-26T05:39:50;1.52;;;1.52;;
28086;SDS011;15392;48.912;8.380;2023-06-26T05:42:16;1.58;;;1.58;;
28086;SDS011;15392;48.912;8.380;2023-06-26T05:44:42;1.67;;;1.67;;
28086;SDS011;15392;48.912;8.380;2023-06-26T05:47:08;1.58;;;1.58;;
28086;SDS011;15392;48.912;8.380;2023-06-26T05:49:34;1.52;;;1.52;;
28086;SDS011;15392;48.912;8.380;2023-06-26T05:52:00;1.63;;;1.63;;
28086;SDS011;15392;48.912;8.380;2023-06-26T05:54:26;1.60;;;1.60;;
28086;SDS011;15392;48.912;8.380;2023-06-26T05:56:52;1.52;;;1.52;;
28086;SDS011;15392;48.912;8.380;2023-06-26T05:59:24;1.52;;;1.52;;
28086;SDS011;15392;48.912;8.380;2023-06-26T06:01:52;1.40;;;1.40;;
28086;SDS011;15392;48.912;8.380;2023-06-26T06:04:18;1.52;;;1.52;;
28086;SDS011;15392;48.912;8.380;2023-06-26T06:06:43;1.52;;;1.52;;
28086;SDS011;15392;48.912;8.380;2023-06-26T06:09:09;1.65;;;1.65;;
28086;SDS011;15392;48.912;8.380;2023-06-26T06:11:35;1.52;;;1.52;;
28086;SDS011;15392;48.912;8.380;2023-06-26T06:14:02;1.50;;;1.50;;
28086;SDS011;15392;48.912;8.380;2023-06-26T06:16:28;1.50;;;1.50;;
28086;SDS011;15392;48.912;8.380;2023-06-26T06:18:54;1.38;;;1.38;;
28086;SDS011;15392;48.912;8.380;2023-06-26T06:21:20;1.50;;;1.50;;
28086;SDS011;15392;48.912;8.380;2023-06-26T06:23:46;1.50;;;1.50;;
28086;SDS011;15392;48.912;8.380;2023-06-26T06:26:12;1.60;;;1.58;;
28086;SDS011;15392;48.912;8.380;2023-06-26T06:28:38;1.38;;;1.38;;
28086;SDS011;15392;48.912;8.380;2023-06-26T06:31:05;1.52;;;1.52;;
28086;SDS011;15392;48.912;8.380;2023-06-26T06:33:31;1.70;;;1.70;;
28086;SDS011;15392;48.912;8.380;2023-06-26T06:35:57;1.63;;;1.52;;
28086;SDS011;15392;48.912;8.380;2023-06-26T06:38:23;1.45;;;1.45;;
28086;SDS011;15392;48.912;8.380;2023-06-26T06:40:48;1.40;;;1.40;;
28086;SDS011;15392;48.912;8.380;2023-06-26T06:43:14;1.48;;;1.48;;
28086;SDS011;15392;48.912;8.380;2023-06-26T06:45:40;1.42;;;1.42;;
28086;SDS011;15392;48.912;8.380;2023-06-26T06:48:06;1.52;;;1.52;;
28086;SDS011;15392;48.912;8.380;2023-06-26T06:50:32;1.60;;;1.60;;
28086;SDS011;15392;48.912;8.380;2023-06-26T06:52:58;1.60;;;1.55;;
28086;SDS011;15392;48.912;8.380;2023-06-26T06:55:23;1.38;;;1.38;;
28086;SDS011;15392;48.912;8.380;2023-06-26T06:57:51;1.50;;;1.50;;
28086;SDS011;15392;48.912;8.380;2023-06-26T07:00:16;1.27;;;1.27;;
28086;SDS011;15392;48.912;8.380;2023-06-26T07:02:43;1.48;;;1.42;;
28086;SDS011;15392;48.912;8.380;2023-06-26T07:05:11;1.35;;;1.30;;
28086;SDS011;15392;48.912;8.380;2023-06-26T07:07:37;1.42;;;1.42;;
28086;SDS011;15392;48.912;8.380;2023-06-26T07:10:09;1.33;;;1.33;;
28086;SDS011;15392;48.912;8.380;2023-06-26T07:12:38;1.35;;;1.35;;
28086;SDS011;15392;48.912;8.380;2023-06-26T07:15:04;1.50;;;1.50;;
28086;SDS011;15392;48.912;8.380;2023-06-26T07:17:32;1.45;;;1.45;;
28086;SDS011;15392;48.912;8.380;2023-06-26T07:19:59;1.45;;;1.45;;
28086;SDS011;15392;48.912;8.380;2023-06-26T07:22:28;1.25;;;1.25;;
28086;SDS011;15392;48.912;8.380;2023-06-26T07:24:54;1.40;;;1.40;;
28086;SDS011;15392;48.912;8.380;2023-06-26T07:27:20;1.50;;;1.50;;
28086;SDS011;15392;48.912;8.380;2023-06-26T07:29:46;1.25;;;1.25;;
28086;SDS011;15392;48.912;8.380;2023-06-26T07:32:11;1.25;;;1.25;;
28086;SDS011;15392;48.912;8.380;2023-06-26T07:34:37;1.40;;;1.40;;
28086;SDS011;15392;48.912;8.380;2023-06-26T07:37:03;1.20;;;1.20;;
28086;SDS011;15392;48.912;8.380;2023-06-26T07:39:29;1.63;;;1.52;;
28086;SDS011;15392;48.912;8.380;2023-06-26T07:41:55;1.55;;;1.40;;
28086;SDS011;15392;48.912;8.380;2023-06-26T07:44:24;1.25;;;1.25;;
28086;SDS011;15392;48.912;8.380;2023-06-26T07:46:50;1.40;;;1.40;;
28086;SDS011;15392;48.912;8.380;2023-06-26T07:49:16;1.40;;;1.40;;
28086;SDS011;15392;48.912;8.380;2023-06-26T07:51:42;1.10;;;1.10;;
28086;SDS011;15392;48.912;8.380;2023-06-26T07:54:07;1.25;;;1.25;;
28086;SDS011;15392;48.912;8.380;2023-06-26T07:59:23;1.40;;;1.40;;
28086;SDS011;15392;48.912;8.380;2023-06-26T08:01:51;1.20;;;1.20;;
28086;SDS011;15392;48.912;8.380;2023-06-26T08:04:18;0.98;;;0.98;;
28086;SDS011;15392;48.912;8.380;2023-06-26T08:06:49;1.17;;;1.17;;
28086;SDS011;15392;48.912;8.380;2023-06-26T08:09:18;1.10;;;1.10;;
28086;SDS011;15392;48.912;8.380;2023-06-26T08:11:45;1.00;;;1.00;;
28086;SDS011;15392;48.912;8.380;2023-06-26T08:14:12;1.13;;;1.13;;
28086;SDS011;15392;48.912;8.380;2023-06-26T08:16:39;0.93;;;0.93;;
28086;SDS011;15392;48.912;8.380;2023-06-26T08:19:05;1.20;;;1.20;;
28086;SDS011;15392;48.912;8.380;2023-06-26T08:21:32;1.10;;;1.10;;
28086;SDS011;15392;48.912;8.380;2023-06-26T08:23:58;1.10;;;1.10;;
28086;SDS011;15392;48.912;8.380;2023-06-26T08:26:23;1.13;;;1.13;;
28086;SDS011;15392;48.912;8.380;2023-06-26T08:28:49;1.27;;;1.27;;
28086;SDS011;15392;48.912;8.380;2023-06-26T08:31:15;1.20;;;1.20;;
28086;SDS011;15392;48.912;8.380;2023-06-26T08:33:41;1.30;;;1.30;;
28086;SDS011;15392;48.912;8.380;2023-06-26T08:36:07;1.38;;;1.38;;
28086;SDS011;15392;48.912;8.380;2023-06-26T08:38:33;1.33;;;1.33;;
28086;SDS011;15392;48.912;8.380;2023-06-26T08:40:59;0.98;;;0.98;;
28086;SDS011;15392;48.912;8.380;2023-06-26T08:43:25;1.30;;;1.30;;
28086;SDS011;15392;48.912;8.380;2023-06-26T08:45:52;1.50;;;1.50;;
28086;SDS011;15392;48.912;8.380;2023-06-26T08:48:18;1.13;;;1.13;;
28086;SDS011;15392;48.912;8.380;2023-06-26T08:50:48;1.63;;;1.52;;
28086;SDS011;15392;48.912;8.380;2023-06-26T08:53:21;1.80;;;1.40;;
28086;SDS011;15392;48.912;8.380;2023-06-26T08:56:05;1.30;;;1.20;;
28086;SDS011;15392;48.912;8.380;2023-06-26T08:58:32;1.20;;;1.20;;
28086;SDS011;15392;48.912;8.380;2023-06-26T09:01:01;1.38;;;1.38;;
28086;SDS011;15392;48.912;8.380;2023-06-26T09:03:28;1.40;;;1.40;;
28086;SDS011;15392;48.912;8.380;2023-06-26T09:05:54;1.10;;;1.10;;
28086;SDS011;15392;48.912;8.380;2023-06-26T09:08:20;1.38;;;1.38;;
28086;SDS011;15392;48.912;8.380;2023-06-26T09:10:45;1.25;;;1.15;;
28086;SDS011;15392;48.912;8.380;2023-06-26T09:13:11;1.00;;;1.00;;
28086;SDS011;15392;48.912;8.380;2023-06-26T09:15:38;1.15;;;1.15;;
28086;SDS011;15392;48.912;8.380;2023-06-26T09:18:07;1.20;;;1.20;;
28086;SDS011;15392;48.912;8.380;2023-06-26T09:20:33;1.10;;;1.10;;
28086;SDS011;15392;48.912;8.380;2023-06-26T09:22:59;1.38;;;1.10;;
28086;SDS011;15392;48.912;8.380;2023-06-26T09:25:25;0.98;;;0.98;;
28086;SDS011;15392;48.912;8.380;2023-06-26T09:27:52;0.90;;;0.90;;
28086;SDS011;15392;48.912;8.380;2023-06-26T09:30:18;0.93;;;0.93;;
28086;SDS011;15392;48.912;8.380;2023-06-26T09:32:44;1.00;;;1.00;;
28086;SDS011;15392;48.912;8.380;2023-06-26T09:35:10;1.10;;;1.10;;
28086;SDS011;15392;48.912;8.380;2023-06-26T09:37:36;1.20;;;1.20;;
28086;SDS011;15392;48.912;8.380;2023-06-26T09:40:03;1.20;;;1.20;;
28086;SDS011;15392;48.912;8.380;2023-06-26T09:42:30;1.85;;;1.00;;
28086;SDS011;15392;48.912;8.380;2023-06-26T09:44:56;1.00;;;1.00;;
28086;SDS011;15392;48.912;8.380;2023-06-26T09:47:23;1.20;;;1.20;;
28086;SDS011;15392;48.912;8.380;2023-06-26T09:49:49;1.10;;;1.10;;
28086;SDS011;15392;48.912;8.380;2023-06-26T09:52:16;0.88;;;0.88;;
28086;SDS011;15392;48.912;8.380;2023-06-26T09:54:44;1.13;;;1.10;;
28086;SDS011;15392;48.912;8.380;2023-06-26T09:57:17;1.20;;;1.20;;
28086;SDS011;15392;48.912;8.380;2023-06-26T09:59:44;1.20;;;1.10;;
28086;SDS011;15392;48.912;8.380;2023-06-26T10:02:12;1.10;;;1.10;;
28086;SDS011;15392;48.912;8.380;2023-06-26T10:04:38;2.75;;;1.10;;
28086;SDS011;15392;48.912;8.380;2023-06-26T10:07:04;1.05;;;1.05;;
28086;SDS011;15392;48.912;8.380;2023-06-26T10:12:06;0.77;;;0.77;;
28086;SDS011;15392;48.912;8.380;2023-06-26T10:14:37;1.38;;;1.00;;
28086;SDS011;15392;48.912;8.380;2023-06-26T10:17:06;1.10;;;1.10;;
28086;SDS011;15392;48.912;8.380;2023-06-26T10:19:41;1.20;;;1.20;;
28086;SDS011;15392;48.912;8.380;2023-06-26T10:24:37;0.93;;;0.93;;
28086;SDS011;15392;48.912;8.380;2023-06-26T10:27:16;1.00;;;1.00;;
28086;SDS011;15392;48.912;8.380;2023-06-26T10:29:46;1.15;;;1.15;;
28086;SDS011;15392;48.912;8.380;2023-06-26T10:32:16;0.80;;;0.80;;
28086;SDS011;15392;48.912;8.380;2023-06-26T10:34:43;1.48;;;1.10;;
28086;SDS011;15392;48.912;8.380;2023-06-26T10:37:09;1.00;;;1.00;;
28086;SDS011;15392;48.912;8.380;2023-06-26T10:42:20;1.20;;;1.20;;
28086;SDS011;15392;48.912;8.380;2023-06-26T10:45:14;1.00;;;1.00;;
28086;SDS011;15392;48.912;8.380;2023-06-26T10:47:43;1.10;;;1.10;;
28086;SDS011;15392;48.912;8.380;2023-06-26T10:50:19;1.25;;;1.25;;
28086;SDS011;15392;48.912;8.380;2023-06-26T10:55:51;0.95;;;0.95;;
28086;SDS011;15392;48.912;8.380;2023-06-26T10:58:32;1.08;;;1.08;;
28086;SDS011;15392;48.912;8.380;2023-06-26T11:03:44;1.00;;;1.00;;
28086;SDS011;15392;48.912;8.380;2023-06-26T11:06:19;1.10;;;1.10;;
28086;SDS011;15392;48.912;8.380;2023-06-26T11:08:50;1.23;;;1.23;;
28086;SDS011;15392;48.912;8.380;2023-06-26T11:11:19;0.93;;;0.93;;
28086;SDS011;15392;48.912;8.380;2023-06-26T11:13:47;0.90;;;0.90;;
28086;SDS011;15392;48.912;8.380;2023-06-26T11:16:14;1.00;;;1.00;;
28086;SDS011;15392;48.912;8.380;2023-06-26T11:18:41;2.35;;;1.30;;
28086;SDS011;15392;48.912;8.380;2023-06-26T11:21:07;1.13;;;1.13;;
28086;SDS011;15392;48.912;8.380;2023-06-26T11:23:37;1.00;;;1.00;;
28086;SDS011;15392;48.912;8.380;2023-06-26T11:26:15;1.02;;;0.90;;
28086;SDS011;15392;48.912;8.380;2023-06-26T11:28:55;0.98;;;0.98;;
28086;SDS011;15392;48.912;8.380;2023-06-26T11:31:29;0.80;;;0.80;;
28086;SDS011;15392;48.912;8.380;2023-06-26T11:33:57;0.82;;;0.82;;
28086;SDS011;15392;48.912;8.380;2023-06-26T11:36:32;0.90;;;0.90;;
28086;SDS011;15392;48.912;8.380;2023-06-26T11:39:02;0.82;;;0.82;;
28086;SDS011;15392;48.912;8.380;2023-06-26T11:41:33;0.90;;;0.90;;
28086;SDS011;15392;48.912;8.380;2023-06-26T11:44:05;1.35;;;1.05;;
28086;SDS011;15392;48.912;8.380;2023-06-26T11:46:34;0.85;;;0.85;;
28086;SDS011;15392;48.912;8.380;2023-06-26T11:49:04;0.98;;;0.98;;
28086;SDS011;15392;48.912;8.380;2023-06-26T11:51:30;0.90;;;0.90;;
28086;SDS011;15392;48.912;8.380;2023-06-26T11:53:56;0.80;;;0.80;;
28086;SDS011;15392;48.912;8.380;2023-06-26T11:56:22;1.00;;;1.00;;
28086;SDS011;15392;48.912;8.380;2023-06-26T11:59:01;1.83;;;1.00;;
28086;SDS011;15392;48.912;8.380;2023-06-26T12:01:50;0.95;;;0.95;;
28086;SDS011;15392;48.912;8.380;2023-06-26T12:04:17;0.90;;;0.90;;
28086;SDS011;15392;48.912;8.380;2023-06-26T12:06:51;0.90;;;0.90;;
28086;SDS011;15392;48.912;8.380;2023-06-26T12:09:22;1.25;;;0.77;;
28086;SDS011;15392;48.912;8.380;2023-06-26T12:11:51;0.90;;;0.90;;
28086;SDS011;15392;48.912;8.380;2023-06-26T12:14:19;1.13;;;0.70;;
28086;SDS011;15392;48.912;8.380;2023-06-26T12:16:46;0.60;;;0.60;;
28086;SDS011;15392;48.912;8.380;2023-06-26T12:19:12;0.63;;;0.63;;
28086;SDS011;15392;48.912;8.380;2023-06-26T12:24:15;0.60;;;0.60;;
28086;SDS011;15392;48.912;8.380;2023-06-26T12:26:43;0.63;;;0.63;;
28086;SDS011;15392;48.912;8.380;2023-06-26T12:29:14;0.50;;;0.50;;
28086;SDS011;15392;48.912;8.380;2023-06-26T12:31:49;0.60;;;0.60;;
28086;SDS011;15392;48.912;8.380;2023-06-26T12:34:18;0.88;;;0.88;;
28086;SDS011;15392;48.912;8.380;2023-06-26T12:36:46;0.65;;;0.65;;
28086;SDS011;15392;48.912;8.380;2023-06-26T12:39:15;0.60;;;0.60;;
28086;SDS011;15392;48.912;8.380;2023-06-26T12:41:53;0.47;;;0.47;;
28086;SDS011;15392;48.912;8.380;2023-06-26T12:44:24;0.68;;;0.68;;
28086;SDS011;15392;48.912;8.380;2023-06-26T12:47:10;0.60;;;0.60;;
28086;SDS011;15392;48.912;8.380;2023-06-26T12:49:42;0.57;;;0.57;;
28086;SDS011;15392;48.912;8.380;2023-06-26T12:52:12;0.63;;;0.63;;
28086;SDS011;15392;48.912;8.380;2023-06-26T12:54:40;0.60;;;0.60;;
28086;SDS011;15392;48.912;8.380;2023-06-26T12:57:08;0.50;;;0.50;;
28086;SDS011;15392;48.912;8.380;2023-06-26T12:59:38;0.45;;;0.45;;
28086;SDS011;15392;48.912;8.380;2023-06-26T13:02:04;0.70;;;0.70;;
28086;SDS011;15392;48.912;8.380;2023-06-26T13:04:30;0.60;;;0.60;;
28086;SDS011;15392;48.912;8.380;2023-06-26T13:06:56;0.73;;;0.73;;
28086;SDS011;15392;48.912;8.380;2023-06-26T13:09:23;0.60;;;0.60;;
28086;SDS011;15392;48.912;8.380;2023-06-26T13:11:53;0.70;;;0.70;;
28086;SDS011;15392;48.912;8.380;2023-06-26T13:16:46;0.52;;;0.50;;
28086;SDS011;15392;48.912;8.380;2023-06-26T13:19:12;0.50;;;0.50;;
28086;SDS011;15392;48.912;8.380;2023-06-26T13:21:38;0.60;;;0.60;;
28086;SDS011;15392;48.912;8.380;2023-06-26T13:24:04;0.70;;;0.70;;
28086;SDS011;15392;48.912;8.380;2023-06-26T13:26:30;0.55;;;0.55;;
28086;SDS011;15392;48.912;8.380;2023-06-26T13:28:57;0.50;;;0.50;;
28086;SDS011;15392;48.912;8.380;2023-06-26T13:31:23;0.60;;;0.60;;
28086;SDS011;15392;48.912;8.380;2023-06-26T13:33:49;0.70;;;0.70;;
28086;SDS011;15392;48.912;8.380;2023-06-26T13:36:16;0.80;;;0.80;;
28086;SDS011;15392;48.912;8.380;2023-06-26T13:38:41;0.70;;;0.70;;
28086;SDS011;15392;48.912;8.380;2023-06-26T13:41:07;0.80;;;0.80;;
28086;SDS011;15392;48.912;8.380;2023-06-26T13:43:33;0.70;;;0.70;;
28086;SDS011;15392;48.912;8.380;2023-06-26T13:45:59;0.88;;;0.80;;
28086;SDS011;15392;48.912;8.380;2023-06-26T13:48:26;0.88;;;0.88;;
28086;SDS011;15392;48.912;8.380;2023-06-26T13:50:52;0.88;;;0.85;;
28086;SDS011;15392;48.912;8.380;2023-06-26T13:53:18;0.90;;;0.90;;
28086;SDS011;15392;48.912;8.380;2023-06-26T13:55:44;0.88;;;0.88;;
28086;SDS011;15392;48.912;8.380;2023-06-26T13:58:11;0.85;;;0.85;;
28086;SDS011;15392;48.912;8.380;2023-06-26T14:00:38;0.95;;;0.95;;
28086;SDS011;15392;48.912;8.380;2023-06-26T14:03:05;1.10;;;1.10;;
28086;SDS011;15392;48.912;8.380;2023-06-26T14:05:35;0.77;;;0.77;;
28086;SDS011;15392;48.912;8.380;2023-06-26T14:08:07;1.15;;;0.90;;
28086;SDS011;15392;48.912;8.380;2023-06-26T14:10:33;1.13;;;1.13;;
28086;SDS011;15392;48.912;8.380;2023-06-26T14:13:02;1.02;;;1.02;;
28086;SDS011;15392;48.912;8.380;2023-06-26T14:17:55;0.90;;;0.90;;
28086;SDS011;15392;48.912;8.380;2023-06-26T14:20:21;0.90;;;0.90;;
28086;SDS011;15392;48.912;8.380;2023-06-26T14:22:48;1.08;;;1.00;;
28086;SDS011;15392;48.912;8.380;2023-06-26T14:25:14;1.10;;;1.10;;
28086;SDS011;15392;48.912;8.380;2023-06-26T14:27:41;1.00;;;1.00;;
28086;SDS011;15392;48.912;8.380;2023-06-26T14:30:07;1.20;;;1.20;;
28086;SDS011;15392;48.912;8.380;2023-06-26T14:32:34;1.20;;;1.20;;
28086;SDS011;15392;48.912;8.380;2023-06-26T14:35:01;1.20;;;1.20;;
28086;SDS011;15392;48.912;8.380;2023-06-26T14:37:28;1.30;;;1.30;;
28086;SDS011;15392;48.912;8.380;2023-06-26T14:39:55;1.17;;;1.17;;
28086;SDS011;15392;48.912;8.380;2023-06-26T14:42:22;1.10;;;1.10;;
28086;SDS011;15392;48.912;8.380;2023-06-26T14:44:48;1.00;;;1.00;;
28086;SDS011;15392;48.912;8.380;2023-06-26T14:47:18;1.00;;;1.00;;
28086;SDS011;15392;48.912;8.380;2023-06-26T14:49:44;0.93;;;0.93;;
28086;SDS011;15392;48.912;8.380;2023-06-26T14:52:10;1.00;;;1.00;;
28086;SDS011;15392;48.912;8.380;2023-06-26T14:54:36;0.95;;;0.95;;
28086;SDS011;15392;48.912;8.380;2023-06-26T14:57:05;0.90;;;0.90;;
28086;SDS011;15392;48.912;8.380;2023-06-26T14:59:32;1.10;;;1.10;;
28086;SDS011;15392;48.912;8.380;2023-06-26T15:01:58;1.10;;;0.98;;
28086;SDS011;15392;48.912;8.380;2023-06-26T15:04:24;1.10;;;1.10;;
28086;SDS011;15392;48.912;8.380;2023-06-26T15:06:50;1.00;;;1.00;;
28086;SDS011;15392;48.912;8.380;2023-06-26T15:09:16;0.82;;;0.82;;
28086;SDS011;15392;48.912;8.380;2023-06-26T15:11:41;1.00;;;1.00;;
28086;SDS011;15392;48.912;8.380;2023-06-26T15:14:08;0.80;;;0.80;;
28086;SDS011;15392;48.912;8.380;2023-06-26T15:16:34;0.82;;;0.82;;
28086;SDS011;15392;48.912;8.380;2023-06-26T15:18:59;0.60;;;0.60;;
28086;SDS011;15392;48.912;8.380;2023-06-26T15:21:26;0.75;;;0.75;;
28086;SDS011;15392;48.912;8.380;2023-06-26T15:23:51;0.57;;;0.57;;
28086;SDS011;15392;48.912;8.380;2023-06-26T15:26:20;0.50;;;0.50;;
28086;SDS011;15392;48.912;8.380;2023-06-26T15:28:46;0.43;;;0.40;;